sensor_id;sensor_type;location;lat;lon;timestamp;P1;durP1;ratioP1;P2;durP2;ratioP2
9900;SDS011;4989;48.772;9.154;2023-11-18T00:02:35;2.03;;;1.50;;
9900;SDS011;4989;48.772;9.154;2023-11-18T00:07:37;2.00;;;1.37;;
9900;SDS011;4989;48.772;9.154;2023-11-18T00:12:40;1.13;;;1.10;;
9900;SDS011;4989;48.772;9.154;2023-11-18T00:17:43;1.60;;;1.50;;
9900;SDS011;4989;48.772;9.154;2023-11-18T00:22:46;1.97;;;1.40;;
9900;SDS011;4989;48.772;9.154;2023-11-18T00:27:48;1.40;;;1.30;;
9900;SDS011;4989;48.772;9.154;2023-11-18T00:32:50;2.33;;;1.43;;
9900;SDS011;4989;48.772;9.154;2023-11-18T00:37:52;1.77;;;1.63;;
9900;SDS011;4989;48.772;9.154;2023-11-18T00:42:56;1.70;;;1.60;;
9900;SDS011;4989;48.772;9.154;2023-11-18T00:47:58;2.53;;;1.80;;
9900;SDS011;4989;48.772;9.154;2023-11-18T00:53:01;2.30;;;1.87;;
9900;SDS011;4989;48.772;9.154;2023-11-18T00:58:03;2.77;;;1.70;;
9900;SDS011;4989;48.772;9.154;2023-11-18T01:03:06;1.80;;;1.60;;
9900;SDS011;4989;48.772;9.154;2023-11-18T01:08:09;1.90;;;1.67;;
9900;SDS011;4989;48.772;9.154;2023-11-18T01:13:12;1.60;;;1.50;;
9900;SDS011;4989;48.772;9.154;2023-11-18T01:18:14;2.73;;;1.70;;
9900;SDS011;4989;48.772;9.154;2023-11-18T01:23:16;2.40;;;2.20;;
9900;SDS011;4989;48.772;9.154;2023-11-18T01:28:19;1.93;;;1.73;;
9900;SDS011;4989;48.772;9.154;2023-11-18T01:33:21;1.90;;;1.50;;
9900;SDS011;4989;48.772;9.154;2023-11-18T01:38:25;1.80;;;1.70;;
9900;SDS011;4989;48.772;9.154;2023-11-18T01:43:27;1.23;;;1.10;;
9900;SDS011;4989;48.772;9.154;2023-11-18T01:48:30;1.37;;;1.27;;
9900;SDS011;4989;48.772;9.154;2023-11-18T01:53:36;1.47;;;1.30;;
9900;SDS011;4989;48.772;9.154;2023-11-18T01:58:41;1.50;;;1.40;;
9900;SDS011;4989;48.772;9.154;2023-11-18T02:03:43;6.33;;;1.60;;
9900;SDS011;4989;48.772;9.154;2023-11-18T02:08:46;1.10;;;1.10;;
9900;SDS011;4989;48.772;9.154;2023-11-18T02:13:49;1.30;;;1.27;;
9900;SDS011;4989;48.772;9.154;2023-11-18T02:18:56;0.80;;;0.80;;
9900;SDS011;4989;48.772;9.154;2023-11-18T02:24:00;1.00;;;1.00;;
9900;SDS011;4989;48.772;9.154;2023-11-18T02:29:03;1.00;;;1.00;;
9900;SDS011;4989;48.772;9.154;2023-11-18T02:34:08;1.37;;;1.27;;
9900;SDS011;4989;48.772;9.154;2023-11-18T02:39:24;1.47;;;1.37;;
9900;SDS011;4989;48.772;9.154;2023-11-18T02:44:38;4.27;;;1.30;;
9900;SDS011;4989;48.772;9.154;2023-11-18T02:49:40;1.40;;;1.30;;
9900;SDS011;4989;48.772;9.154;2023-11-18T02:54:42;1.07;;;1.00;;
9900;SDS011;4989;48.772;9.154;2023-11-18T02:59:45;1.07;;;1.07;;
9900;SDS011;4989;48.772;9.154;2023-11-18T03:04:48;1.33;;;1.00;;
9900;SDS011;4989;48.772;9.154;2023-11-18T03:09:50;1.40;;;1.30;;
9900;SDS011;4989;48.772;9.154;2023-11-18T03:14:53;1.10;;;1.10;;
9900;SDS011;4989;48.772;9.154;2023-11-18T03:19:55;1.00;;;1.00;;
9900;SDS011;4989;48.772;9.154;2023-11-18T03:24:58;1.27;;;1.17;;
9900;SDS011;4989;48.772;9.154;2023-11-18T03:30:01;1.30;;;1.20;;
9900;SDS011;4989;48.772;9.154;2023-11-18T03:35:04;1.03;;;1.03;;
9900;SDS011;4989;48.772;9.154;2023-11-18T03:40:11;1.20;;;1.20;;
9900;SDS011;4989;48.772;9.154;2023-11-18T03:45:15;1.50;;;1.20;;
9900;SDS011;4989;48.772;9.154;2023-11-18T03:50:20;1.40;;;1.30;;
9900;SDS011;4989;48.772;9.154;2023-11-18T03:55:22;1.50;;;1.40;;
9900;SDS011;4989;48.772;9.154;2023-11-18T04:00:24;1.37;;;1.27;;
9900;SDS011;4989;48.772;9.154;2023-11-18T04:05:31;1.30;;;1.20;;
9900;SDS011;4989;48.772;9.154;2023-11-18T04:10:34;1.40;;;1.30;;
9900;SDS011;4989;48.772;9.154;2023-11-18T04:15:36;1.73;;;1.33;;
9900;SDS011;4989;48.772;9.154;2023-11-18T04:20:38;1.70;;;1.60;;
9900;SDS011;4989;48.772;9.154;2023-11-18T04:25:41;1.47;;;1.37;;
9900;SDS011;4989;48.772;9.154;2023-11-18T04:30:43;1.47;;;1.37;;
9900;SDS011;4989;48.772;9.154;2023-11-18T04:35:46;1.00;;;1.00;;
9900;SDS011;4989;48.772;9.154;2023-11-18T04:40:49;1.70;;;1.60;;
9900;SDS011;4989;48.772;9.154;2023-11-18T04:45:51;1.23;;;1.13;;
9900;SDS011;4989;48.772;9.154;2023-11-18T04:50:54;1.30;;;1.30;;
9900;SDS011;4989;48.772;9.154;2023-11-18T04:55:56;1.10;;;1.10;;
9900;SDS011;4989;48.772;9.154;2023-11-18T05:00:58;1.50;;;1.40;;
9900;SDS011;4989;48.772;9.154;2023-11-18T05:06:00;2.53;;;1.10;;
9900;SDS011;4989;48.772;9.154;2023-11-18T05:11:03;1.30;;;1.20;;
9900;SDS011;4989;48.772;9.154;2023-11-18T05:16:06;1.10;;;1.10;;
9900;SDS011;4989;48.772;9.154;2023-11-18T05:21:09;1.50;;;1.40;;
9900;SDS011;4989;48.772;9.154;2023-11-18T05:26:13;1.50;;;1.40;;
9900;SDS011;4989;48.772;9.154;2023-11-18T05:31:16;1.20;;;1.17;;
9900;SDS011;4989;48.772;9.154;2023-11-18T05:36:18;1.80;;;1.70;;
9900;SDS011;4989;48.772;9.154;2023-11-18T05:41:28;1.33;;;1.20;;
9900;SDS011;4989;48.772;9.154;2023-11-18T05:46:33;1.47;;;1.13;;
9900;SDS011;4989;48.772;9.154;2023-11-18T05:51:35;1.37;;;1.27;;
9900;SDS011;4989;48.772;9.154;2023-11-18T05:56:37;1.40;;;1.30;;
9900;SDS011;4989;48.772;9.154;2023-11-18T06:01:40;1.50;;;1.40;;
9900;SDS011;4989;48.772;9.154;2023-11-18T06:06:42;1.70;;;1.60;;
9900;SDS011;4989;48.772;9.154;2023-11-18T06:11:44;1.93;;;1.83;;
9900;SDS011;4989;48.772;9.154;2023-11-18T06:16:47;1.67;;;1.40;;
9900;SDS011;4989;48.772;9.154;2023-11-18T06:21:52;1.50;;;1.40;;
9900;SDS011;4989;48.772;9.154;2023-11-18T06:26:54;1.60;;;1.50;;
9900;SDS011;4989;48.772;9.154;2023-11-18T06:31:56;1.60;;;1.50;;
9900;SDS011;4989;48.772;9.154;2023-11-18T06:36:59;1.57;;;1.47;;
9900;SDS011;4989;48.772;9.154;2023-11-18T06:42:01;1.60;;;1.50;;
9900;SDS011;4989;48.772;9.154;2023-11-18T06:47:06;1.80;;;1.70;;
9900;SDS011;4989;48.772;9.154;2023-11-18T06:52:08;1.60;;;1.47;;
9900;SDS011;4989;48.772;9.154;2023-11-18T06:57:13;3.57;;;1.90;;
9900;SDS011;4989;48.772;9.154;2023-11-18T07:02:16;5.80;;;1.87;;
9900;SDS011;4989;48.772;9.154;2023-11-18T07:07:18;1.80;;;1.70;;
9900;SDS011;4989;48.772;9.154;2023-11-18T07:12:20;3.37;;;2.00;;
9900;SDS011;4989;48.772;9.154;2023-11-18T07:17:22;2.30;;;2.10;;
9900;SDS011;4989;48.772;9.154;2023-11-18T07:22:25;2.40;;;1.90;;
9900;SDS011;4989;48.772;9.154;2023-11-18T07:27:28;2.30;;;2.10;;
9900;SDS011;4989;48.772;9.154;2023-11-18T07:32:30;2.20;;;2.00;;
9900;SDS011;4989;48.772;9.154;2023-11-18T07:37:32;2.27;;;2.07;;
9900;SDS011;4989;48.772;9.154;2023-11-18T07:42:35;2.37;;;2.17;;
9900;SDS011;4989;48.772;9.154;2023-11-18T07:47:37;3.53;;;2.10;;
9900;SDS011;4989;48.772;9.154;2023-11-18T07:52:41;2.47;;;2.27;;
9900;SDS011;4989;48.772;9.154;2023-11-18T07:57:43;2.57;;;2.30;;
9900;SDS011;4989;48.772;9.154;2023-11-18T08:02:45;2.33;;;1.73;;
9900;SDS011;4989;48.772;9.154;2023-11-18T08:07:47;2.77;;;2.17;;
9900;SDS011;4989;48.772;9.154;2023-11-18T08:12:50;2.63;;;2.43;;
9900;SDS011;4989;48.772;9.154;2023-11-18T08:17:55;2.30;;;2.10;;
9900;SDS011;4989;48.772;9.154;2023-11-18T08:22:58;2.37;;;2.17;;
9900;SDS011;4989;48.772;9.154;2023-11-18T08:28:00;1.90;;;1.70;;
9900;SDS011;4989;48.772;9.154;2023-11-18T08:33:05;2.00;;;1.90;;
9900;SDS011;4989;48.772;9.154;2023-11-18T08:38:10;2.43;;;2.23;;
9900;SDS011;4989;48.772;9.154;2023-11-18T08:43:14;2.93;;;1.90;;
9900;SDS011;4989;48.772;9.154;2023-11-18T08:48:18;1.77;;;1.60;;
9900;SDS011;4989;48.772;9.154;2023-11-18T08:53:20;2.63;;;1.60;;
9900;SDS011;4989;48.772;9.154;2023-11-18T08:58:28;1.90;;;1.73;;
9900;SDS011;4989;48.772;9.154;2023-11-18T09:03:35;2.00;;;1.90;;
9900;SDS011;4989;48.772;9.154;2023-11-18T09:08:38;3.60;;;1.83;;
9900;SDS011;4989;48.772;9.154;2023-11-18T09:13:44;2.03;;;1.63;;
9900;SDS011;4989;48.772;9.154;2023-11-18T09:18:55;1.60;;;1.50;;
9900;SDS011;4989;48.772;9.154;2023-11-18T09:24:01;2.40;;;1.70;;
9900;SDS011;4989;48.772;9.154;2023-11-18T09:29:06;2.37;;;2.13;;
9900;SDS011;4989;48.772;9.154;2023-11-18T09:34:12;1.60;;;1.50;;
9900;SDS011;4989;48.772;9.154;2023-11-18T09:39:18;1.63;;;1.53;;
9900;SDS011;4989;48.772;9.154;2023-11-18T09:44:31;1.60;;;1.37;;
9900;SDS011;4989;48.772;9.154;2023-11-18T09:49:34;1.40;;;1.30;;
9900;SDS011;4989;48.772;9.154;2023-11-18T09:55:04;1.43;;;1.33;;
9900;SDS011;4989;48.772;9.154;2023-11-18T10:00:16;2.03;;;1.13;;
9900;SDS011;4989;48.772;9.154;2023-11-18T10:05:34;2.60;;;1.20;;
9900;SDS011;4989;48.772;9.154;2023-11-18T10:10:37;2.13;;;1.20;;
9900;SDS011;4989;48.772;9.154;2023-11-18T10:15:49;0.90;;;0.90;;
9900;SDS011;4989;48.772;9.154;2023-11-18T10:20:55;1.47;;;1.20;;
9900;SDS011;4989;48.772;9.154;2023-11-18T10:25:58;0.90;;;0.90;;
9900;SDS011;4989;48.772;9.154;2023-11-18T10:31:03;1.70;;;0.90;;
9900;SDS011;4989;48.772;9.154;2023-11-18T10:36:18;1.13;;;1.00;;
9900;SDS011;4989;48.772;9.154;2023-11-18T10:41:26;5.30;;;1.20;;
9900;SDS011;4989;48.772;9.154;2023-11-18T10:46:32;1.63;;;1.10;;
9900;SDS011;4989;48.772;9.154;2023-11-18T10:51:34;0.90;;;0.90;;
9900;SDS011;4989;48.772;9.154;2023-11-18T10:56:45;1.43;;;0.90;;
9900;SDS011;4989;48.772;9.154;2023-11-18T11:01:52;1.27;;;1.17;;
9900;SDS011;4989;48.772;9.154;2023-11-18T11:06:55;1.80;;;1.20;;
9900;SDS011;4989;48.772;9.154;2023-11-18T11:12:04;0.90;;;0.90;;
9900;SDS011;4989;48.772;9.154;2023-11-18T11:17:17;0.90;;;0.80;;
9900;SDS011;4989;48.772;9.154;2023-11-18T11:22:37;1.37;;;1.20;;
9900;SDS011;4989;48.772;9.154;2023-11-18T11:28:16;1.73;;;0.97;;
9900;SDS011;4989;48.772;9.154;2023-11-18T11:38:42;1.03;;;0.90;;
9900;SDS011;4989;48.772;9.154;2023-11-18T11:43:48;0.80;;;0.80;;
9900;SDS011;4989;48.772;9.154;2023-11-18T11:48:52;0.93;;;0.93;;
9900;SDS011;4989;48.772;9.154;2023-11-18T11:54:01;0.60;;;0.60;;
9900;SDS011;4989;48.772;9.154;2023-11-18T11:59:16;1.83;;;0.70;;
9900;SDS011;4989;48.772;9.154;2023-11-18T12:04:18;1.30;;;0.83;;
9900;SDS011;4989;48.772;9.154;2023-11-18T12:09:30;3.00;;;1.03;;
9900;SDS011;4989;48.772;9.154;2023-11-18T12:14:48;4.60;;;1.17;;
9900;SDS011;4989;48.772;9.154;2023-11-18T12:25:52;1.40;;;0.63;;
9900;SDS011;4989;48.772;9.154;2023-11-18T12:30:56;1.33;;;0.83;;
9900;SDS011;4989;48.772;9.154;2023-11-18T12:41:41;1.03;;;0.77;;
9900;SDS011;4989;48.772;9.154;2023-11-18T12:52:20;2.30;;;0.90;;
9900;SDS011;4989;48.772;9.154;2023-11-18T12:57:27;5.47;;;1.20;;
9900;SDS011;4989;48.772;9.154;2023-11-18T13:02:33;1.47;;;0.87;;
9900;SDS011;4989;48.772;9.154;2023-11-18T13:07:36;0.90;;;0.90;;
9900;SDS011;4989;48.772;9.154;2023-11-18T13:12:39;1.53;;;1.30;;
9900;SDS011;4989;48.772;9.154;2023-11-18T13:17:56;0.83;;;0.83;;
9900;SDS011;4989;48.772;9.154;2023-11-18T13:23:03;6.57;;;1.10;;
9900;SDS011;4989;48.772;9.154;2023-11-18T13:28:10;1.47;;;1.17;;
9900;SDS011;4989;48.772;9.154;2023-11-18T13:33:13;2.40;;;1.30;;
9900;SDS011;4989;48.772;9.154;2023-11-18T13:38:15;1.20;;;1.10;;
9900;SDS011;4989;48.772;9.154;2023-11-18T13:43:20;0.80;;;0.80;;
9900;SDS011;4989;48.772;9.154;2023-11-18T13:48:23;1.50;;;1.40;;
9900;SDS011;4989;48.772;9.154;2023-11-18T13:53:26;1.20;;;1.10;;
9900;SDS011;4989;48.772;9.154;2023-11-18T13:58:28;1.30;;;1.20;;
9900;SDS011;4989;48.772;9.154;2023-11-18T14:03:30;1.77;;;1.40;;
9900;SDS011;4989;48.772;9.154;2023-11-18T14:08:33;1.43;;;1.33;;
9900;SDS011;4989;48.772;9.154;2023-11-18T14:13:36;3.20;;;1.63;;
9900;SDS011;4989;48.772;9.154;2023-11-18T14:18:39;3.00;;;2.47;;
9900;SDS011;4989;48.772;9.154;2023-11-18T14:23:43;1.70;;;1.60;;
9900;SDS011;4989;48.772;9.154;2023-11-18T14:28:46;2.40;;;1.60;;
9900;SDS011;4989;48.772;9.154;2023-11-18T14:33:48;1.57;;;1.40;;
9900;SDS011;4989;48.772;9.154;2023-11-18T14:38:50;1.70;;;1.60;;
9900;SDS011;4989;48.772;9.154;2023-11-18T14:43:53;1.70;;;1.30;;
9900;SDS011;4989;48.772;9.154;2023-11-18T14:48:55;2.47;;;1.63;;
9900;SDS011;4989;48.772;9.154;2023-11-18T14:53:57;3.57;;;1.63;;
9900;SDS011;4989;48.772;9.154;2023-11-18T14:59:00;2.10;;;1.57;;
9900;SDS011;4989;48.772;9.154;2023-11-18T15:04:02;2.27;;;1.70;;
9900;SDS011;4989;48.772;9.154;2023-11-18T15:09:07;4.20;;;2.10;;
9900;SDS011;4989;48.772;9.154;2023-11-18T15:14:12;1.70;;;1.60;;
9900;SDS011;4989;48.772;9.154;2023-11-18T15:19:15;4.40;;;1.90;;
9900;SDS011;4989;48.772;9.154;2023-11-18T15:24:19;4.07;;;1.90;;
9900;SDS011;4989;48.772;9.154;2023-11-18T15:29:22;2.77;;;1.73;;
9900;SDS011;4989;48.772;9.154;2023-11-18T15:34:29;3.37;;;2.13;;
9900;SDS011;4989;48.772;9.154;2023-11-18T15:39:33;2.67;;;1.70;;
9900;SDS011;4989;48.772;9.154;2023-11-18T15:44:35;2.70;;;2.20;;
9900;SDS011;4989;48.772;9.154;2023-11-18T15:49:39;4.23;;;2.27;;
9900;SDS011;4989;48.772;9.154;2023-11-18T15:54:43;2.43;;;1.63;;
9900;SDS011;4989;48.772;9.154;2023-11-18T15:59:45;4.03;;;2.47;;
9900;SDS011;4989;48.772;9.154;2023-11-18T16:04:47;2.83;;;2.17;;
9900;SDS011;4989;48.772;9.154;2023-11-18T16:09:49;2.67;;;2.30;;
9900;SDS011;4989;48.772;9.154;2023-11-18T16:14:52;2.10;;;1.67;;
9900;SDS011;4989;48.772;9.154;2023-11-18T16:19:54;1.70;;;1.60;;
9900;SDS011;4989;48.772;9.154;2023-11-18T16:24:57;2.07;;;1.87;;
9900;SDS011;4989;48.772;9.154;2023-11-18T16:30:00;3.87;;;1.90;;
9900;SDS011;4989;48.772;9.154;2023-11-18T16:35:04;2.67;;;1.80;;
9900;SDS011;4989;48.772;9.154;2023-11-18T16:40:13;2.03;;;1.80;;
9900;SDS011;4989;48.772;9.154;2023-11-18T16:45:17;2.23;;;1.97;;
9900;SDS011;4989;48.772;9.154;2023-11-18T16:50:22;2.37;;;2.17;;
9900;SDS011;4989;48.772;9.154;2023-11-18T16:55:28;4.33;;;2.00;;
9900;SDS011;4989;48.772;9.154;2023-11-18T17:00:35;2.37;;;2.17;;
9900;SDS011;4989;48.772;9.154;2023-11-18T17:05:38;2.50;;;2.30;;
9900;SDS011;4989;48.772;9.154;2023-11-18T17:10:41;1.90;;;1.70;;
9900;SDS011;4989;48.772;9.154;2023-11-18T17:15:44;2.53;;;2.07;;
9900;SDS011;4989;48.772;9.154;2023-11-18T17:20:46;4.43;;;2.17;;
9900;SDS011;4989;48.772;9.154;2023-11-18T17:25:50;2.10;;;1.93;;
9900;SDS011;4989;48.772;9.154;2023-11-18T17:30:52;1.87;;;1.67;;
9900;SDS011;4989;48.772;9.154;2023-11-18T17:35:55;2.43;;;1.70;;
9900;SDS011;4989;48.772;9.154;2023-11-18T17:40:59;2.50;;;2.03;;
9900;SDS011;4989;48.772;9.154;2023-11-18T17:46:02;1.63;;;1.53;;
9900;SDS011;4989;48.772;9.154;2023-11-18T17:51:05;2.10;;;1.53;;
9900;SDS011;4989;48.772;9.154;2023-11-18T17:56:08;1.50;;;1.40;;
9900;SDS011;4989;48.772;9.154;2023-11-18T18:01:10;2.10;;;1.50;;
9900;SDS011;4989;48.772;9.154;2023-11-18T18:06:12;2.27;;;1.40;;
9900;SDS011;4989;48.772;9.154;2023-11-18T18:11:14;1.33;;;1.33;;
9900;SDS011;4989;48.772;9.154;2023-11-18T18:16:18;1.77;;;1.27;;
9900;SDS011;4989;48.772;9.154;2023-11-18T18:21:21;1.30;;;1.20;;
9900;SDS011;4989;48.772;9.154;2023-11-18T18:26:23;1.30;;;1.20;;
9900;SDS011;4989;48.772;9.154;2023-11-18T18:31:26;1.40;;;1.30;;
9900;SDS011;4989;48.772;9.154;2023-11-18T18:36:28;1.50;;;1.40;;
9900;SDS011;4989;48.772;9.154;2023-11-18T18:41:31;1.17;;;1.13;;
9900;SDS011;4989;48.772;9.154;2023-11-18T18:46:33;1.30;;;1.20;;
9900;SDS011;4989;48.772;9.154;2023-11-18T18:51:35;1.77;;;1.20;;
9900;SDS011;4989;48.772;9.154;2023-11-18T18:56:37;1.13;;;1.03;;
9900;SDS011;4989;48.772;9.154;2023-11-18T19:01:39;1.30;;;1.20;;
9900;SDS011;4989;48.772;9.154;2023-11-18T19:06:46;1.40;;;1.10;;
9900;SDS011;4989;48.772;9.154;2023-11-18T19:11:49;1.20;;;1.10;;
9900;SDS011;4989;48.772;9.154;2023-11-18T19:16:51;1.00;;;1.00;;
9900;SDS011;4989;48.772;9.154;2023-11-18T19:21:53;1.53;;;1.20;;
9900;SDS011;4989;48.772;9.154;2023-11-18T19:26:57;1.27;;;1.17;;
9900;SDS011;4989;48.772;9.154;2023-11-18T19:31:59;1.47;;;1.37;;
9900;SDS011;4989;48.772;9.154;2023-11-18T19:37:01;1.30;;;1.10;;
9900;SDS011;4989;48.772;9.154;2023-11-18T19:42:04;1.57;;;1.23;;
9900;SDS011;4989;48.772;9.154;2023-11-18T19:47:06;1.20;;;1.10;;
9900;SDS011;4989;48.772;9.154;2023-11-18T19:52:08;1.30;;;1.20;;
9900;SDS011;4989;48.772;9.154;2023-11-18T19:57:11;1.50;;;1.30;;
9900;SDS011;4989;48.772;9.154;2023-11-18T20:02:13;1.10;;;1.00;;
9900;SDS011;4989;48.772;9.154;2023-11-18T20:07:15;2.27;;;1.60;;
9900;SDS011;4989;48.772;9.154;2023-11-18T20:12:38;1.23;;;1.17;;
9900;SDS011;4989;48.772;9.154;2023-11-18T20:17:40;1.50;;;1.40;;
9900;SDS011;4989;48.772;9.154;2023-11-18T20:22:47;1.83;;;1.50;;
9900;SDS011;4989;48.772;9.154;2023-11-18T20:27:56;1.10;;;1.10;;
9900;SDS011;4989;48.772;9.154;2023-11-18T20:32:58;1.13;;;1.03;;
9900;SDS011;4989;48.772;9.154;2023-11-18T20:38:01;1.37;;;1.27;;
9900;SDS011;4989;48.772;9.154;2023-11-18T20:43:04;1.30;;;1.20;;
9900;SDS011;4989;48.772;9.154;2023-11-18T20:48:07;0.90;;;0.90;;
9900;SDS011;4989;48.772;9.154;2023-11-18T20:53:09;1.20;;;1.00;;
9900;SDS011;4989;48.772;9.154;2023-11-18T20:58:12;1.07;;;1.00;;
9900;SDS011;4989;48.772;9.154;2023-11-18T21:03:15;1.07;;;1.03;;
9900;SDS011;4989;48.772;9.154;2023-11-18T21:08:17;1.10;;;1.00;;
9900;SDS011;4989;48.772;9.154;2023-11-18T21:13:20;1.20;;;1.10;;
9900;SDS011;4989;48.772;9.154;2023-11-18T21:18:22;1.40;;;1.30;;
9900;SDS011;4989;48.772;9.154;2023-11-18T21:23:24;1.40;;;1.30;;
9900;SDS011;4989;48.772;9.154;2023-11-18T21:28:27;1.87;;;1.37;;
9900;SDS011;4989;48.772;9.154;2023-11-18T21:33:29;1.30;;;1.20;;
9900;SDS011;4989;48.772;9.154;2023-11-18T21:38:32;1.10;;;1.10;;
9900;SDS011;4989;48.772;9.154;2023-11-18T21:43:35;3.70;;;1.10;;
9900;SDS011;4989;48.772;9.154;2023-11-18T21:48:38;1.30;;;1.10;;
9900;SDS011;4989;48.772;9.154;2023-11-18T21:53:42;1.00;;;1.00;;
9900;SDS011;4989;48.772;9.154;2023-11-18T21:58:45;1.37;;;1.27;;
9900;SDS011;4989;48.772;9.154;2023-11-18T22:03:47;1.10;;;1.10;;
9900;SDS011;4989;48.772;9.154;2023-11-18T22:08:50;1.73;;;1.50;;
9900;SDS011;4989;48.772;9.154;2023-11-18T22:13:53;1.87;;;1.40;;
9900;SDS011;4989;48.772;9.154;2023-11-18T22:18:55;1.33;;;1.23;;
9900;SDS011;4989;48.772;9.154;2023-11-18T22:23:57;1.10;;;1.00;;
9900;SDS011;4989;48.772;9.154;2023-11-18T22:28:59;1.80;;;1.40;;
9900;SDS011;4989;48.772;9.154;2023-11-18T22:34:02;1.00;;;1.00;;
9900;SDS011;4989;48.772;9.154;2023-11-18T22:39:07;1.70;;;1.27;;
9900;SDS011;4989;48.772;9.154;2023-11-18T22:44:12;1.13;;;1.13;;
9900;SDS011;4989;48.772;9.154;2023-11-18T22:49:23;1.00;;;1.00;;
9900;SDS011;4989;48.772;9.154;2023-11-18T22:54:25;1.17;;;1.07;;
9900;SDS011;4989;48.772;9.154;2023-11-18T22:59:28;1.47;;;1.30;;
9900;SDS011;4989;48.772;9.154;2023-11-18T23:04:30;1.00;;;1.00;;
9900;SDS011;4989;48.772;9.154;2023-11-18T23:09:32;1.33;;;1.20;;
9900;SDS011;4989;48.772;9.154;2023-11-18T23:14:34;1.03;;;1.03;;
9900;SDS011;4989;48.772;9.154;2023-11-18T23:19:37;1.73;;;1.50;;
9900;SDS011;4989;48.772;9.154;2023-11-18T23:24:50;1.30;;;1.17;;
9900;SDS011;4989;48.772;9.154;2023-11-18T23:29:54;1.37;;;1.27;;
9900;SDS011;4989;48.772;9.154;2023-11-18T23:34:56;1.40;;;1.30;;
9900;SDS011;4989;48.772;9.154;2023-11-18T23:39:59;1.50;;;1.40;;
9900;SDS011;4989;48.772;9.154;2023-11-18T23:45:07;1.97;;;1.30;;
9900;SDS011;4989;48.772;9.154;2023-11-18T23:50:15;1.50;;;1.40;;
9900;SDS011;4989;48.772;9.154;2023-11-18T23:55:17;1.30;;;1.20;;
